sensor_id;sensor_type;location;lat;lon;timestamp;pressure;altitude;pressure_sealevel;temperature;humidity
73429;BME280;61643;49.564;17.412;2023-03-25T00:01:16;97294.91;;;10.83;100.00
73429;BME280;61643;49.564;17.412;2023-03-25T00:03:43;97288.47;;;10.79;100.00
73429;BME280;61643;49.564;17.412;2023-03-25T00:06:15;97293.63;;;10.75;100.00
73429;BME280;61643;49.564;17.412;2023-03-25T00:08:42;97293.59;;;10.80;100.00
73429;BME280;61643;49.564;17.412;2023-03-25T00:11:08;97293.06;;;10.78;100.00
73429;BME280;61643;49.564;17.412;2023-03-25T00:13:34;97295.25;;;10.71;100.00
73429;BME280;61643;49.564;17.412;2023-03-25T00:16:02;97291.22;;;10.74;100.00
73429;BME280;61643;49.564;17.412;2023-03-25T00:18:30;97299.00;;;10.75;100.00
73429;BME280;61643;49.564;17.412;2023-03-25T00:20:59;97289.84;;;10.76;100.00
73429;BME280;61643;49.564;17.412;2023-03-25T00:23:27;97286.63;;;10.74;100.00
73429;BME280;61643;49.564;17.412;2023-03-25T00:25:54;97276.41;;;10.76;100.00
73429;BME280;61643;49.564;17.412;2023-03-25T00:28:26;97284.75;;;10.75;100.00
73429;BME280;61643;49.564;17.412;2023-03-25T00:30:53;97280.47;;;10.74;100.00
73429;BME280;61643;49.564;17.412;2023-03-25T00:33:19;97276.97;;;10.73;99.36
73429;BME280;61643;49.564;17.412;2023-03-25T00:35:50;97272.09;;;10.75;95.30
73429;BME280;61643;49.564;17.412;2023-03-25T00:38:17;97278.78;;;10.78;93.70
73429;BME280;61643;49.564;17.412;2023-03-25T00:40:43;97275.03;;;10.79;91.76
73429;BME280;61643;49.564;17.412;2023-03-25T00:43:11;97275.03;;;10.79;89.17
73429;BME280;61643;49.564;17.412;2023-03-25T00:45:37;97276.91;;;10.78;83.55
73429;BME280;61643;49.564;17.412;2023-03-25T00:48:03;97287.16;;;10.76;82.25
73429;BME280;61643;49.564;17.412;2023-03-25T00:50:29;97276.16;;;10.73;83.39
73429;BME280;61643;49.564;17.412;2023-03-25T00:52:55;97279.13;;;10.71;80.81
73429;BME280;61643;49.564;17.412;2023-03-25T00:55:21;97272.41;;;10.69;80.08
73429;BME280;61643;49.564;17.412;2023-03-25T00:57:47;97278.06;;;10.67;80.97
73429;BME280;61643;49.564;17.412;2023-03-25T01:00:15;97267.06;;;10.64;81.35
73429;BME280;61643;49.564;17.412;2023-03-25T01:02:41;97273.81;;;10.61;80.77
73429;BME280;61643;49.564;17.412;2023-03-25T01:05:08;97260.34;;;10.61;80.68
73429;BME280;61643;49.564;17.412;2023-03-25T01:07:36;97260.91;;;10.63;81.42
73429;BME280;61643;49.564;17.412;2023-03-25T01:10:04;97248.03;;;10.55;80.62
73429;BME280;61643;49.564;17.412;2023-03-25T01:12:30;97251.00;;;10.54;81.41
73429;BME280;61643;49.564;17.412;2023-03-25T01:14:56;97259.06;;;10.54;81.68
73429;BME280;61643;49.564;17.412;2023-03-25T01:17:22;97245.41;;;10.45;81.43
73429;BME280;61643;49.564;17.412;2023-03-25T01:19:49;97250.25;;;10.43;81.45
73429;BME280;61643;49.564;17.412;2023-03-25T01:22:15;97261.56;;;10.40;81.09
73429;BME280;61643;49.564;17.412;2023-03-25T01:24:41;97269.66;;;10.40;80.87
73429;BME280;61643;49.564;17.412;2023-03-25T01:27:07;97269.41;;;10.36;80.97
73429;BME280;61643;49.564;17.412;2023-03-25T01:29:33;97278.03;;;10.33;79.45
73429;BME280;61643;49.564;17.412;2023-03-25T01:31:59;97260.81;;;10.34;79.59
73429;BME280;61643;49.564;17.412;2023-03-25T01:34:25;97272.06;;;10.42;79.43
73429;BME280;61643;49.564;17.412;2023-03-25T01:36:51;97281.47;;;10.39;79.43
73429;BME280;61643;49.564;17.412;2023-03-25T01:39:20;97287.72;;;10.34;79.68
73429;BME280;61643;49.564;17.412;2023-03-25T01:41:48;97293.34;;;10.33;80.20
73429;BME280;61643;49.564;17.412;2023-03-25T01:46:44;97269.97;;;10.28;79.96
73429;BME280;61643;49.564;17.412;2023-03-25T01:51:50;97279.16;;;10.22;80.63
73429;BME280;61643;49.564;17.412;2023-03-25T01:54:18;97290.72;;;10.23;80.62
73429;BME280;61643;49.564;17.412;2023-03-25T01:56:47;97286.16;;;10.18;80.82
73429;BME280;61643;49.564;17.412;2023-03-25T01:59:16;97281.56;;;10.24;80.28
73429;BME280;61643;49.564;17.412;2023-03-25T02:01:45;97283.47;;;10.18;79.90
73429;BME280;61643;49.564;17.412;2023-03-25T02:04:12;97282.97;;;10.16;80.36
73429;BME280;61643;49.564;17.412;2023-03-25T02:06:45;97280.53;;;10.15;79.79
73429;BME280;61643;49.564;17.412;2023-03-25T02:09:17;97278.38;;;10.17;79.56
73429;BME280;61643;49.564;17.412;2023-03-25T02:11:45;97282.94;;;10.11;79.94
73429;BME280;61643;49.564;17.412;2023-03-25T02:14:14;97287.78;;;10.09;80.55
73429;BME280;61643;49.564;17.412;2023-03-25T02:16:59;97291.84;;;10.07;80.84
73429;BME280;61643;49.564;17.412;2023-03-25T02:22:24;97285.66;;;10.06;80.75
73429;BME280;61643;49.564;17.412;2023-03-25T02:36:17;97311.50;;;9.97;82.74
73429;BME280;61643;49.564;17.412;2023-03-25T02:38:58;97301.03;;;9.96;83.53
73429;BME280;61643;49.564;17.412;2023-03-25T02:44:23;97288.19;;;9.77;85.35
73429;BME280;61643;49.564;17.412;2023-03-25T02:46:55;97298.41;;;9.70;85.55
73429;BME280;61643;49.564;17.412;2023-03-25T02:49:26;97289.09;;;9.43;86.72
73429;BME280;61643;49.564;17.412;2023-03-25T02:54:34;97307.09;;;9.42;86.85
73429;BME280;61643;49.564;17.412;2023-03-25T02:57:02;97305.22;;;9.48;86.50
73429;BME280;61643;49.564;17.412;2023-03-25T02:59:30;97314.59;;;9.50;86.74
73429;BME280;61643;49.564;17.412;2023-03-25T03:02:04;97315.66;;;9.54;86.59
73429;BME280;61643;49.564;17.412;2023-03-25T03:04:44;97318.09;;;9.51;87.15
73429;BME280;61643;49.564;17.412;2023-03-25T03:07:23;97310.84;;;9.46;87.52
73429;BME280;61643;49.564;17.412;2023-03-25T03:13:07;97319.97;;;9.30;87.50
73429;BME280;61643;49.564;17.412;2023-03-25T03:15:47;97320.00;;;9.25;87.92
73429;BME280;61643;49.564;17.412;2023-03-25T03:18:49;97323.47;;;9.20;87.84
73429;BME280;61643;49.564;17.412;2023-03-25T03:21:27;97334.75;;;9.17;86.69
73429;BME280;61643;49.564;17.412;2023-03-25T03:24:03;97336.38;;;9.13;87.05
73429;BME280;61643;49.564;17.412;2023-03-25T03:26:41;97329.94;;;9.09;86.68
73429;BME280;61643;49.564;17.412;2023-03-25T03:29:14;97323.22;;;9.07;87.38
73429;BME280;61643;49.564;17.412;2023-03-25T03:31:52;97322.16;;;9.03;87.94
73429;BME280;61643;49.564;17.412;2023-03-25T03:34:24;97325.63;;;8.98;87.69
73429;BME280;61643;49.564;17.412;2023-03-25T03:36:54;97337.97;;;8.94;86.99
73429;BME280;61643;49.564;17.412;2023-03-25T03:39:41;97327.25;;;8.89;87.22
73429;BME280;61643;49.564;17.412;2023-03-25T03:42:19;97340.13;;;8.82;89.11
73429;BME280;61643;49.564;17.412;2023-03-25T03:44:59;97327.50;;;8.82;88.91
73429;BME280;61643;49.564;17.412;2023-03-25T03:47:31;97335.28;;;8.84;89.09
73429;BME280;61643;49.564;17.412;2023-03-25T03:50:10;97340.09;;;8.87;88.99
73429;BME280;61643;49.564;17.412;2023-03-25T03:52:42;97340.66;;;8.89;89.15
73429;BME280;61643;49.564;17.412;2023-03-25T03:55:25;97343.63;;;8.82;89.55
73429;BME280;61643;49.564;17.412;2023-03-25T03:58:00;97346.00;;;8.84;89.03
73429;BME280;61643;49.564;17.412;2023-03-25T04:00:47;97350.56;;;8.94;89.27
73429;BME280;61643;49.564;17.412;2023-03-25T04:03:26;97355.16;;;8.98;89.13
73429;BME280;61643;49.564;17.412;2023-03-25T04:06:00;97355.97;;;9.04;89.01
73429;BME280;61643;49.564;17.412;2023-03-25T04:08:59;97351.41;;;9.09;89.25
73429;BME280;61643;49.564;17.412;2023-03-25T04:11:36;97369.66;;;9.17;89.37
73429;BME280;61643;49.564;17.412;2023-03-25T04:14:07;97365.91;;;9.13;89.05
73429;BME280;61643;49.564;17.412;2023-03-25T04:16:34;97367.78;;;9.23;89.76
73429;BME280;61643;49.564;17.412;2023-03-25T04:19:05;97365.91;;;9.23;90.03
73429;BME280;61643;49.564;17.412;2023-03-25T04:21:32;97373.41;;;9.26;89.88
73429;BME280;61643;49.564;17.412;2023-03-25T04:23:58;97371.81;;;9.25;90.26
73429;BME280;61643;49.564;17.412;2023-03-25T04:26:29;97371.81;;;9.30;90.14
73429;BME280;61643;49.564;17.412;2023-03-25T04:29:00;97371.81;;;9.30;91.13
73429;BME280;61643;49.564;17.412;2023-03-25T04:31:26;97375.84;;;9.28;91.24
73429;BME280;61643;49.564;17.412;2023-03-25T04:33:56;97372.09;;;9.29;91.09
73429;BME280;61643;49.564;17.412;2023-03-25T04:36:23;97371.00;;;9.30;91.41
73429;BME280;61643;49.564;17.412;2023-03-25T04:38:54;97366.44;;;9.25;92.32
73429;BME280;61643;49.564;17.412;2023-03-25T04:41:21;97368.06;;;9.21;92.51
73429;BME280;61643;49.564;17.412;2023-03-25T04:43:47;97374.47;;;9.15;92.19
73429;BME280;61643;49.564;17.412;2023-03-25T04:46:14;97379.59;;;9.17;92.69
73429;BME280;61643;49.564;17.412;2023-03-25T04:48:41;97370.75;;;9.11;92.04
73429;BME280;61643;49.564;17.412;2023-03-25T04:51:11;97363.19;;;9.08;92.40
73429;BME280;61643;49.564;17.412;2023-03-25T04:53:38;97360.78;;;9.12;91.32
73429;BME280;61643;49.564;17.412;2023-03-25T04:56:06;97363.47;;;9.12;91.99
73429;BME280;61643;49.564;17.412;2023-03-25T04:58:32;97373.97;;;9.13;91.83
73429;BME280;61643;49.564;17.412;2023-03-25T05:00:58;97388.97;;;9.19;90.93
73429;BME280;61643;49.564;17.412;2023-03-25T05:03:31;97392.22;;;9.16;92.15
73429;BME280;61643;49.564;17.412;2023-03-25T05:05:57;97384.44;;;9.15;92.95
73429;BME280;61643;49.564;17.412;2023-03-25T05:08:23;97384.41;;;9.10;92.46
73429;BME280;61643;49.564;17.412;2023-03-25T05:10:49;97382.81;;;9.04;92.42
73429;BME280;61643;49.564;17.412;2023-03-25T05:13:15;97380.94;;;9.09;92.19
73429;BME280;61643;49.564;17.412;2023-03-25T05:15:41;97379.88;;;9.10;92.73
73429;BME280;61643;49.564;17.412;2023-03-25T05:18:13;97384.41;;;9.05;92.78
73429;BME280;61643;49.564;17.412;2023-03-25T05:20:42;97383.63;;;9.04;92.21
73429;BME280;61643;49.564;17.412;2023-03-25T05:23:09;97383.59;;;8.99;92.21
73429;BME280;61643;49.564;17.412;2023-03-25T05:25:43;97383.06;;;9.02;92.59
73429;BME280;61643;49.564;17.412;2023-03-25T05:28:10;97395.41;;;8.98;92.67
73429;BME280;61643;49.564;17.412;2023-03-25T05:30:39;97392.19;;;9.01;93.18
73429;BME280;61643;49.564;17.412;2023-03-25T05:33:09;97378.75;;;8.91;93.38
73429;BME280;61643;49.564;17.412;2023-03-25T05:35:36;97391.66;;;8.89;92.92
73429;BME280;61643;49.564;17.412;2023-03-25T05:38:04;97388.41;;;8.87;92.56
73429;BME280;61643;49.564;17.412;2023-03-25T05:40:30;97386.28;;;8.89;92.27
73429;BME280;61643;49.564;17.412;2023-03-25T05:42:58;97381.97;;;8.88;92.76
73429;BME280;61643;49.564;17.412;2023-03-25T05:45:24;97378.50;;;8.93;91.87
73429;BME280;61643;49.564;17.412;2023-03-25T05:47:49;97385.19;;;8.90;91.08
73429;BME280;61643;49.564;17.412;2023-03-25T05:50:15;97387.09;;;8.89;91.15
73429;BME280;61643;49.564;17.412;2023-03-25T05:52:42;97387.88;;;8.90;91.79
73429;BME280;61643;49.564;17.412;2023-03-25T05:55:15;97391.66;;;8.89;91.26
73429;BME280;61643;49.564;17.412;2023-03-25T05:57:42;97398.09;;;8.93;91.56
73429;BME280;61643;49.564;17.412;2023-03-25T06:00:09;97395.41;;;8.98;91.75
73429;BME280;61643;49.564;17.412;2023-03-25T06:02:35;97403.22;;;9.00;91.18
73429;BME280;61643;49.564;17.412;2023-03-25T06:05:05;97416.09;;;9.03;91.33
73429;BME280;61643;49.564;17.412;2023-03-25T06:07:31;97407.75;;;8.99;92.53
73429;BME280;61643;49.564;17.412;2023-03-25T06:09:57;97405.09;;;9.04;92.06
73429;BME280;61643;49.564;17.412;2023-03-25T06:12:23;97404.28;;;9.09;91.91
73429;BME280;61643;49.564;17.412;2023-03-25T06:14:52;97399.44;;;9.06;90.84
73429;BME280;61643;49.564;17.412;2023-03-25T06:17:20;97419.06;;;9.11;91.10
73429;BME280;61643;49.564;17.412;2023-03-25T06:19:50;97406.72;;;9.10;91.44
73429;BME280;61643;49.564;17.412;2023-03-25T06:22:17;97420.66;;;9.07;91.72
73429;BME280;61643;49.564;17.412;2023-03-25T06:24:45;97413.69;;;9.06;92.55
73429;BME280;61643;49.564;17.412;2023-03-25T06:27:15;97415.31;;;9.07;92.04
73429;BME280;61643;49.564;17.412;2023-03-25T06:29:42;97420.94;;;9.11;91.82
73429;BME280;61643;49.564;17.412;2023-03-25T06:32:11;97419.59;;;9.13;93.42
73429;BME280;61643;49.564;17.412;2023-03-25T06:34:38;97406.97;;;9.04;93.41
73429;BME280;61643;49.564;17.412;2023-03-25T06:37:08;97405.91;;;9.15;91.74
73429;BME280;61643;49.564;17.412;2023-03-25T06:39:34;97399.19;;;9.12;92.83
73429;BME280;61643;49.564;17.412;2023-03-25T06:42:03;97384.44;;;9.15;92.82
73429;BME280;61643;49.564;17.412;2023-03-25T06:44:29;97388.47;;;9.27;91.61
73429;BME280;61643;49.564;17.412;2023-03-25T06:46:55;97393.31;;;9.35;92.17
73429;BME280;61643;49.564;17.412;2023-03-25T06:49:21;97400.81;;;9.49;90.62
73429;BME280;61643;49.564;17.412;2023-03-25T06:51:47;97400.00;;;9.68;91.27
73429;BME280;61643;49.564;17.412;2023-03-25T06:54:13;97393.78;;;9.78;91.18
73429;BME280;61643;49.564;17.412;2023-03-25T06:56:40;97415.78;;;10.05;89.21
73429;BME280;61643;49.564;17.412;2023-03-25T06:59:06;97416.88;;;10.19;89.18
73429;BME280;61643;49.564;17.412;2023-03-25T07:01:32;97417.41;;;10.16;89.00
73429;BME280;61643;49.564;17.412;2023-03-25T07:03:58;97407.72;;;10.15;89.21
73429;BME280;61643;49.564;17.412;2023-03-25T07:06:24;97408.25;;;10.17;89.48
73429;BME280;61643;49.564;17.412;2023-03-25T07:08:50;97401.25;;;10.26;89.46
73429;BME280;61643;49.564;17.412;2023-03-25T07:11:20;97410.84;;;10.43;89.77
73429;BME280;61643;49.564;17.412;2023-03-25T07:13:48;97405.97;;;10.60;88.34
73429;BME280;61643;49.564;17.412;2023-03-25T07:16:19;97391.81;;;10.83;86.96
73429;BME280;61643;49.564;17.412;2023-03-25T07:18:46;97400.06;;;11.02;86.70
73429;BME280;61643;49.564;17.412;2023-03-25T07:21:12;97401.88;;;11.11;83.92
73429;BME280;61643;49.564;17.412;2023-03-25T07:23:38;97392.47;;;11.09;84.04
73429;BME280;61643;49.564;17.412;2023-03-25T07:26:04;97396.25;;;11.08;82.58
73429;BME280;61643;49.564;17.412;2023-03-25T07:28:30;97393.03;;;11.06;82.73
73429;BME280;61643;49.564;17.412;2023-03-25T07:30:56;97392.75;;;11.07;82.92
73429;BME280;61643;49.564;17.412;2023-03-25T07:33:22;97399.78;;;11.03;83.13
73429;BME280;61643;49.564;17.412;2023-03-25T07:35:48;97399.72;;;11.13;84.45
73429;BME280;61643;49.564;17.412;2023-03-25T07:38:14;97401.78;;;11.21;84.52
73429;BME280;61643;49.564;17.412;2023-03-25T07:40:41;97399.09;;;11.21;83.21
73429;BME280;61643;49.564;17.412;2023-03-25T07:43:07;97399.72;;;11.13;81.91
73429;BME280;61643;49.564;17.412;2023-03-25T07:45:33;97404.66;;;10.96;82.38
73429;BME280;61643;49.564;17.412;2023-03-25T07:48:01;97400.88;;;10.97;84.87
73429;BME280;61643;49.564;17.412;2023-03-25T07:50:27;97391.44;;;11.00;85.64
73429;BME280;61643;49.564;17.412;2023-03-25T07:52:53;97391.16;;;11.06;84.38
73429;BME280;61643;49.564;17.412;2023-03-25T07:55:20;97392.47;;;11.09;83.18
73429;BME280;61643;49.564;17.412;2023-03-25T07:57:46;97384.16;;;11.05;81.79
73429;BME280;61643;49.564;17.412;2023-03-25T08:00:12;97392.72;;;11.12;82.34
73429;BME280;61643;49.564;17.412;2023-03-25T08:02:39;97396.94;;;11.23;81.05
73429;BME280;61643;49.564;17.412;2023-03-25T08:05:05;97399.53;;;11.39;81.95
73429;BME280;61643;49.564;17.412;2023-03-25T08:07:32;97392.41;;;11.53;82.11
73429;BME280;61643;49.564;17.412;2023-03-25T08:10:00;97398.03;;;11.56;81.79
73429;BME280;61643;49.564;17.412;2023-03-25T08:12:26;97387.81;;;11.53;79.87
73429;BME280;61643;49.564;17.412;2023-03-25T08:14:52;97403.22;;;11.48;77.50
73429;BME280;61643;49.564;17.412;2023-03-25T08:17:18;97396.31;;;11.36;75.38
73429;BME280;61643;49.564;17.412;2023-03-25T08:19:44;97397.66;;;11.39;74.66
73429;BME280;61643;49.564;17.412;2023-03-25T08:22:10;97398.25;;;11.31;75.08
73429;BME280;61643;49.564;17.412;2023-03-25T08:24:36;97393.66;;;11.31;74.80
73429;BME280;61643;49.564;17.412;2023-03-25T08:27:03;97384.06;;;11.20;75.14
73429;BME280;61643;49.564;17.412;2023-03-25T08:29:29;97372.94;;;11.27;77.20
73429;BME280;61643;49.564;17.412;2023-03-25T08:32:00;97379.38;;;11.31;77.20
73429;BME280;61643;49.564;17.412;2023-03-25T08:34:26;97384.78;;;11.31;78.03
73429;BME280;61643;49.564;17.412;2023-03-25T08:36:52;97386.69;;;11.25;76.58
73429;BME280;61643;49.564;17.412;2023-03-25T08:39:18;97389.13;;;11.27;76.56
73429;BME280;61643;49.564;17.412;2023-03-25T08:41:46;97379.72;;;11.24;76.45
73429;BME280;61643;49.564;17.412;2023-03-25T08:44:12;97384.31;;;11.19;75.47
73429;BME280;61643;49.564;17.412;2023-03-25T08:46:38;97381.59;;;11.24;75.73
73429;BME280;61643;49.564;17.412;2023-03-25T08:49:04;97374.56;;;11.28;74.22
73429;BME280;61643;49.564;17.412;2023-03-25T08:51:31;97361.75;;;11.44;76.28
73429;BME280;61643;49.564;17.412;2023-03-25T08:53:57;97364.28;;;11.64;75.98
73429;BME280;61643;49.564;17.412;2023-03-25T08:56:23;97360.91;;;11.82;76.38
73429;BME280;61643;49.564;17.412;2023-03-25T08:58:49;97361.13;;;11.86;73.01
73429;BME280;61643;49.564;17.412;2023-03-25T09:01:15;97355.97;;;11.89;72.89
73429;BME280;61643;49.564;17.412;2023-03-25T09:03:41;97363.91;;;12.04;73.38
73429;BME280;61643;49.564;17.412;2023-03-25T09:06:08;97357.59;;;12.14;73.51
73429;BME280;61643;49.564;17.412;2023-03-25T09:08:35;97348.63;;;12.18;74.33
73429;BME280;61643;49.564;17.412;2023-03-25T09:11:04;97354.72;;;12.29;74.15
73429;BME280;61643;49.564;17.412;2023-03-25T09:13:30;97355.16;;;12.36;74.40
73429;BME280;61643;49.564;17.412;2023-03-25T09:15:57;97344.50;;;12.26;70.87
73429;BME280;61643;49.564;17.412;2023-03-25T09:18:23;97342.66;;;12.21;72.26
73429;BME280;61643;49.564;17.412;2023-03-25T09:20:49;97351.44;;;12.32;73.70
73429;BME280;61643;49.564;17.412;2023-03-25T09:23:16;97350.94;;;12.49;72.92
73429;BME280;61643;49.564;17.412;2023-03-25T09:25:43;97337.16;;;12.50;69.97
73429;BME280;61643;49.564;17.412;2023-03-25T09:28:09;97336.63;;;12.29;69.25
73429;BME280;61643;49.564;17.412;2023-03-25T09:30:35;97332.50;;;12.13;69.63
73429;BME280;61643;49.564;17.412;2023-03-25T09:33:01;97344.00;;;12.00;69.37
73429;BME280;61643;49.564;17.412;2023-03-25T09:35:27;97346.09;;;11.79;70.12
73429;BME280;61643;49.564;17.412;2023-03-25T09:37:53;97347.25;;;11.68;69.71
73429;BME280;61643;49.564;17.412;2023-03-25T09:40:22;97355.38;;;11.63;69.94
73429;BME280;61643;49.564;17.412;2023-03-25T09:45:54;97343.97;;;11.76;67.91
73429;BME280;61643;49.564;17.412;2023-03-25T09:48:36;97353.16;;;11.75;66.53
73429;BME280;61643;49.564;17.412;2023-03-25T09:51:09;97341.06;;;11.97;68.54
73429;BME280;61643;49.564;17.412;2023-03-25T09:56:26;97342.44;;;12.18;66.58
73429;BME280;61643;49.564;17.412;2023-03-25T09:59:00;97343.13;;;12.28;63.97
73429;BME280;61643;49.564;17.412;2023-03-25T10:04:05;97344.78;;;12.86;60.91
73429;BME280;61643;49.564;17.412;2023-03-25T10:06:45;97347.03;;;12.97;58.68
73429;BME280;61643;49.564;17.412;2023-03-25T10:12:21;97337.91;;;12.93;57.23
73429;BME280;61643;49.564;17.412;2023-03-25T10:14:56;97345.38;;;12.82;58.78
73429;BME280;61643;49.564;17.412;2023-03-25T10:25:13;97347.00;;;12.41;59.96
73429;BME280;61643;49.564;17.412;2023-03-25T10:27:44;97338.44;;;12.34;60.70
73429;BME280;61643;49.564;17.412;2023-03-25T10:30:22;97337.81;;;12.42;59.05
73429;BME280;61643;49.564;17.412;2023-03-25T10:37:52;97331.56;;;12.23;58.03
73429;BME280;61643;49.564;17.412;2023-03-25T10:43:11;97314.38;;;12.38;59.59
73429;BME280;61643;49.564;17.412;2023-03-25T10:45:41;97310.53;;;12.44;57.66
73429;BME280;61643;49.564;17.412;2023-03-25T10:48:15;97311.06;;;12.64;57.31
73429;BME280;61643;49.564;17.412;2023-03-25T10:50:44;97305.66;;;12.83;57.79
73429;BME280;61643;49.564;17.412;2023-03-25T10:53:19;97311.94;;;12.97;55.36
73429;BME280;61643;49.564;17.412;2023-03-25T10:55:48;97315.66;;;13.20;54.14
73429;BME280;61643;49.564;17.412;2023-03-25T10:58:18;97314.28;;;13.36;53.49
73429;BME280;61643;49.564;17.412;2023-03-25T11:00:44;97318.91;;;13.49;53.87
73429;BME280;61643;49.564;17.412;2023-03-25T11:03:36;97307.56;;;13.66;52.12
73429;BME280;61643;49.564;17.412;2023-03-25T11:06:04;97314.06;;;13.78;52.33
73429;BME280;61643;49.564;17.412;2023-03-25T11:08:31;97315.47;;;13.62;55.33
73429;BME280;61643;49.564;17.412;2023-03-25T11:10:57;97317.53;;;13.52;53.26
73429;BME280;61643;49.564;17.412;2023-03-25T11:13:28;97299.75;;;13.32;53.77
73429;BME280;61643;49.564;17.412;2023-03-25T11:15:58;97321.91;;;13.34;55.14
73429;BME280;61643;49.564;17.412;2023-03-25T11:18:28;97302.03;;;13.06;54.92
73429;BME280;61643;49.564;17.412;2023-03-25T11:21:16;97306.06;;;13.09;55.84
73429;BME280;61643;49.564;17.412;2023-03-25T11:23:48;97315.06;;;13.04;55.09
73429;BME280;61643;49.564;17.412;2023-03-25T11:26:34;97303.09;;;13.10;55.16
73429;BME280;61643;49.564;17.412;2023-03-25T11:29:05;97305.63;;;13.20;55.96
73429;BME280;61643;49.564;17.412;2023-03-25T11:31:36;97295.16;;;13.32;57.34
73429;BME280;61643;49.564;17.412;2023-03-25T11:36:39;97302.03;;;13.06;55.13
73429;BME280;61643;49.564;17.412;2023-03-25T11:39:17;97290.00;;;12.99;55.78
73429;BME280;61643;49.564;17.412;2023-03-25T11:41:44;97289.72;;;13.00;56.96
73429;BME280;61643;49.564;17.412;2023-03-25T11:44:31;97290.38;;;12.92;56.24
73429;BME280;61643;49.564;17.412;2023-03-25T11:47:01;97287.91;;;12.96;57.33
73429;BME280;61643;49.564;17.412;2023-03-25T11:49:28;97276.00;;;12.97;56.42
73429;BME280;61643;49.564;17.412;2023-03-25T11:52:04;97270.59;;;12.97;55.35
73429;BME280;61643;49.564;17.412;2023-03-25T11:54:33;97268.91;;;13.19;57.44
73429;BME280;61643;49.564;17.412;2023-03-25T11:57:06;97270.13;;;13.27;56.83
73429;BME280;61643;49.564;17.412;2023-03-25T11:59:43;97270.75;;;13.05;54.87
73429;BME280;61643;49.564;17.412;2023-03-25T12:02:37;97272.91;;;13.03;56.00
73429;BME280;61643;49.564;17.412;2023-03-25T12:05:09;97278.88;;;12.87;55.90
73429;BME280;61643;49.564;17.412;2023-03-25T12:07:48;97277.69;;;12.93;57.02
73429;BME280;61643;49.564;17.412;2023-03-25T12:10:22;97278.28;;;12.71;55.96
73429;BME280;61643;49.564;17.412;2023-03-25T12:13:08;97286.75;;;12.46;58.30
73429;BME280;61643;49.564;17.412;2023-03-25T12:16:07;97289.13;;;12.10;60.90
73429;BME280;61643;49.564;17.412;2023-03-25T12:18:59;97291.31;;;11.84;65.45
73429;BME280;61643;49.564;17.412;2023-03-25T12:22:01;97301.41;;;11.73;66.75
73429;BME280;61643;49.564;17.412;2023-03-25T12:36:43;97289.78;;;11.78;62.46
73429;BME280;61643;49.564;17.412;2023-03-25T12:42:30;97288.47;;;11.70;61.56
73429;BME280;61643;49.564;17.412;2023-03-25T13:01:08;97278.81;;;12.54;57.57
73429;BME280;61643;49.564;17.412;2023-03-25T13:06:44;97276.69;;;12.32;57.62
73429;BME280;61643;49.564;17.412;2023-03-25T13:12:08;97272.00;;;12.38;59.25
73429;BME280;61643;49.564;17.412;2023-03-25T13:14:50;97276.78;;;12.46;57.78
73429;BME280;61643;49.564;17.412;2023-03-25T13:17:29;97262.34;;;12.37;57.58
73429;BME280;61643;49.564;17.412;2023-03-25T13:19:59;97255.59;;;12.53;57.61
73429;BME280;61643;49.564;17.412;2023-03-25T13:22:31;97250.50;;;12.70;57.76
73429;BME280;61643;49.564;17.412;2023-03-25T13:25:02;97241.56;;;12.89;58.32
73429;BME280;61643;49.564;17.412;2023-03-25T13:27:32;97243.06;;;13.13;57.53
73429;BME280;61643;49.564;17.412;2023-03-25T13:30:01;97244.59;;;13.19;58.35
73429;BME280;61643;49.564;17.412;2023-03-25T13:32:33;97239.81;;;12.98;57.86
73429;BME280;61643;49.564;17.412;2023-03-25T13:35:12;97234.00;;;13.04;55.46
73429;BME280;61643;49.564;17.412;2023-03-25T13:37:45;97235.69;;;13.32;56.59
73429;BME280;61643;49.564;17.412;2023-03-25T13:42:57;97233.94;;;13.42;51.12
73429;BME280;61643;49.564;17.412;2023-03-25T13:45:24;97229.34;;;13.56;51.74
73429;BME280;61643;49.564;17.412;2023-03-25T13:47:57;97229.22;;;13.61;51.57
73429;BME280;61643;49.564;17.412;2023-03-25T13:50:30;97230.44;;;13.68;52.76
73429;BME280;61643;49.564;17.412;2023-03-25T13:53:02;97229.63;;;13.68;50.91
73429;BME280;61643;49.564;17.412;2023-03-25T14:01:34;97214.91;;;13.88;51.37
73429;BME280;61643;49.564;17.412;2023-03-25T14:04:36;97215.50;;;13.71;47.91
73429;BME280;61643;49.564;17.412;2023-03-25T14:12:37;97223.13;;;13.69;45.18
73429;BME280;61643;49.564;17.412;2023-03-25T14:15:34;97220.91;;;13.71;45.68
73429;BME280;61643;49.564;17.412;2023-03-25T14:18:03;97232.72;;;13.75;44.85
73429;BME280;61643;49.564;17.412;2023-03-25T14:20:35;97223.41;;;13.67;44.38
73429;BME280;61643;49.564;17.412;2023-03-25T14:23:04;97225.75;;;13.74;42.56
73429;BME280;61643;49.564;17.412;2023-03-25T14:25:39;97231.34;;;13.77;42.24
73429;BME280;61643;49.564;17.412;2023-03-25T14:28:11;97234.03;;;13.64;42.93
73429;BME280;61643;49.564;17.412;2023-03-25T14:30:40;97230.53;;;13.63;43.82
73429;BME280;61643;49.564;17.412;2023-03-25T14:33:09;97220.91;;;13.57;44.29
73429;BME280;61643;49.564;17.412;2023-03-25T14:38:48;97240.97;;;13.24;45.46
73429;BME280;61643;49.564;17.412;2023-03-25T14:41:12;97241.34;;;12.85;44.80
73429;BME280;61643;49.564;17.412;2023-03-25T14:43:42;97243.38;;;12.93;45.72
73429;BME280;61643;49.564;17.412;2023-03-25T14:48:42;97232.50;;;13.30;45.52
73429;BME280;61643;49.564;17.412;2023-03-25T14:53:58;97240.75;;;13.66;44.33
73429;BME280;61643;49.564;17.412;2023-03-25T14:56:33;97223.53;;;13.76;45.30
73429;BME280;61643;49.564;17.412;2023-03-25T14:59:11;97231.84;;;13.66;44.36
73429;BME280;61643;49.564;17.412;2023-03-25T15:01:39;97227.81;;;13.50;45.29
73429;BME280;61643;49.564;17.412;2023-03-25T15:04:12;97246.63;;;13.09;45.23
73429;BME280;61643;49.564;17.412;2023-03-25T15:06:39;97238.41;;;13.00;45.72